createdAt,value
2023-01-17T00:01:28.956Z,1.83
2023-01-17T00:03:56.551Z,1.87
2023-01-17T00:06:25.284Z,1.83
2023-01-17T00:08:52.794Z,1.40
2023-01-17T00:11:20.267Z,1.40
2023-01-17T00:13:47.784Z,1.30
2023-01-17T00:16:15.322Z,1.20
2023-01-17T00:18:42.962Z,1.40
2023-01-17T00:21:10.430Z,1.27
2023-01-17T00:23:37.961Z,1.77
2023-01-17T00:26:16.030Z,2.10
2023-01-17T00:28:44.130Z,2.13
2023-01-17T00:31:12.774Z,1.90
2023-01-17T00:33:40.412Z,2.27
2023-01-17T00:36:08.231Z,2.43
2023-01-17T00:38:37.058Z,1.93
2023-01-17T00:41:09.218Z,2.40
2023-01-17T00:43:37.093Z,2.70
2023-01-17T00:46:05.132Z,2.23
2023-01-17T00:48:33.211Z,2.00
2023-01-17T00:51:03.459Z,2.00
2023-01-17T00:53:31.036Z,2.40
2023-01-17T00:56:01.338Z,1.93
2023-01-17T00:58:28.811Z,2.20
2023-01-17T01:00:56.370Z,2.00
2023-01-17T01:03:23.923Z,2.13
2023-01-17T01:05:51.380Z,2.23
2023-01-17T01:08:20.504Z,2.60
2023-01-17T01:10:48.570Z,2.50
2023-01-17T01:13:16.430Z,2.27
2023-01-17T01:15:43.858Z,2.23
2023-01-17T01:18:12.072Z,2.40
2023-01-17T01:20:39.527Z,2.70
2023-01-17T01:23:07.036Z,2.80
2023-01-17T01:25:34.527Z,2.80
2023-01-17T01:28:10.853Z,3.07
2023-01-17T01:30:38.393Z,2.60
2023-01-17T01:33:12.970Z,2.87
2023-01-17T01:35:40.497Z,2.57
2023-01-17T01:38:08.205Z,2.50
2023-01-17T01:40:35.778Z,2.40
2023-01-17T01:43:03.257Z,2.50
2023-01-17T01:45:31.616Z,2.40
2023-01-17T01:48:03.085Z,2.17
2023-01-17T01:50:31.098Z,2.10
2023-01-17T01:53:00.887Z,2.40
2023-01-17T01:55:33.699Z,2.20
2023-01-17T01:58:04.860Z,1.60
2023-01-17T02:00:36.224Z,2.13
2023-01-17T02:03:06.268Z,1.73
2023-01-17T02:05:34.149Z,1.40
2023-01-17T02:08:06.206Z,1.77
2023-01-17T02:10:37.662Z,1.77
2023-01-17T02:13:05.904Z,1.60
2023-01-17T02:15:50.418Z,1.70
2023-01-17T02:18:26.843Z,2.10
2023-01-17T02:21:12.259Z,1.33
2023-01-17T02:23:58.694Z,1.50
2023-01-17T02:26:26.170Z,1.33
2023-01-17T02:29:11.815Z,1.57
2023-01-17T02:31:52.007Z,1.60
2023-01-17T02:34:29.152Z,2.27
2023-01-17T02:37:01.559Z,1.60
2023-01-17T02:39:32.579Z,2.10
2023-01-17T02:42:08.921Z,1.67
2023-01-17T02:44:43.203Z,1.57
2023-01-17T02:47:19.829Z,1.63
2023-01-17T02:49:47.486Z,1.60
2023-01-17T02:52:25.283Z,1.67
2023-01-17T02:55:07.643Z,1.70
2023-01-17T02:57:38.406Z,1.87
2023-01-17T03:00:14.918Z,1.80
2023-01-17T03:02:56.634Z,2.03
2023-01-17T03:05:34.639Z,2.50
2023-01-17T03:08:02.342Z,3.00
2023-01-17T03:10:32.198Z,3.50
2023-01-17T03:13:00.441Z,4.77
2023-01-17T03:15:27.943Z,5.43
2023-01-17T03:17:57.368Z,5.60
2023-01-17T03:20:25.002Z,6.63
2023-01-17T03:22:52.478Z,5.23
2023-01-17T03:25:19.925Z,5.13
2023-01-17T03:27:47.458Z,4.67
2023-01-17T03:30:14.969Z,4.33
2023-01-17T03:32:42.519Z,3.70
2023-01-17T03:35:10.126Z,4.20
2023-01-17T03:37:37.708Z,3.33
2023-01-17T03:40:05.400Z,3.37
2023-01-17T03:42:32.895Z,2.67
2023-01-17T03:45:00.333Z,2.93
2023-01-17T03:47:27.892Z,3.33
2023-01-17T03:49:55.423Z,2.77
2023-01-17T03:52:23.054Z,2.30
2023-01-17T03:54:50.653Z,2.30
2023-01-17T03:57:18.104Z,2.77
2023-01-17T03:59:45.540Z,2.60
2023-01-17T04:02:13.200Z,2.47
2023-01-17T04:04:40.686Z,2.10
2023-01-17T04:07:08.211Z,2.13
2023-01-17T04:09:35.695Z,2.17
2023-01-17T04:12:03.811Z,2.00
2023-01-17T04:14:31.262Z,2.97
2023-01-17T04:16:58.920Z,2.50
2023-01-17T04:19:26.427Z,2.67
2023-01-17T04:21:53.949Z,2.70
2023-01-17T04:24:21.404Z,2.97
2023-01-17T04:26:48.971Z,2.97
2023-01-17T04:29:16.434Z,3.00
2023-01-17T04:31:44.049Z,3.13
2023-01-17T04:34:11.572Z,3.27
2023-01-17T04:36:39.129Z,3.33
2023-01-17T04:39:06.697Z,3.23
2023-01-17T04:41:34.225Z,3.40
2023-01-17T04:44:01.731Z,3.77
2023-01-17T04:46:29.307Z,3.20
2023-01-17T04:48:56.769Z,3.80
2023-01-17T04:51:24.262Z,3.23
2023-01-17T04:53:51.783Z,3.77
2023-01-17T04:56:19.277Z,3.60
2023-01-17T04:58:46.746Z,3.60
2023-01-17T05:01:14.488Z,3.60
2023-01-17T05:03:42.009Z,4.67
2023-01-17T05:06:09.483Z,6.17
2023-01-17T05:08:36.966Z,6.63
2023-01-17T05:11:04.421Z,7.10
2023-01-17T05:13:31.940Z,7.93
2023-01-17T05:15:59.559Z,8.80
2023-01-17T05:18:27.066Z,7.97
2023-01-17T05:20:54.629Z,8.50
2023-01-17T05:23:22.113Z,8.30
2023-01-17T05:25:49.662Z,8.47
2023-01-17T05:28:17.118Z,8.17
2023-01-17T05:30:44.740Z,8.50
2023-01-17T05:33:12.212Z,7.50
2023-01-17T05:35:39.785Z,7.23
2023-01-17T05:38:07.300Z,8.33
2023-01-17T05:40:35.083Z,7.90
2023-01-17T05:43:02.980Z,7.50
2023-01-17T05:45:31.236Z,9.87
2023-01-17T05:47:58.699Z,7.30
2023-01-17T05:50:27.362Z,7.83
2023-01-17T05:52:56.172Z,7.90
2023-01-17T05:55:24.148Z,7.80
2023-01-17T05:57:51.878Z,8.40
2023-01-17T06:00:19.966Z,8.07
2023-01-17T06:02:47.474Z,7.97
2023-01-17T06:05:15.675Z,7.93
2023-01-17T06:07:46.759Z,8.53
2023-01-17T06:10:15.114Z,7.83
2023-01-17T06:12:43.291Z,7.80
2023-01-17T06:15:11.582Z,8.87
2023-01-17T06:17:39.349Z,7.93
2023-01-17T06:20:08.261Z,7.83
2023-01-17T06:22:35.779Z,8.27
2023-01-17T06:25:03.587Z,8.10
2023-01-17T06:27:31.037Z,8.57
2023-01-17T06:29:58.509Z,8.10
2023-01-17T06:32:25.946Z,8.40
2023-01-17T06:34:53.563Z,8.20
2023-01-17T06:37:21.040Z,8.30
2023-01-17T06:39:48.597Z,8.50
2023-01-17T06:42:16.178Z,9.17
2023-01-17T06:44:43.735Z,8.37
2023-01-17T06:47:11.245Z,8.40
2023-01-17T06:49:38.768Z,8.30
2023-01-17T06:52:06.265Z,8.13
2023-01-17T06:54:33.792Z,8.33
2023-01-17T06:57:01.252Z,8.03
2023-01-17T06:59:28.755Z,8.67
2023-01-17T07:01:56.230Z,9.10
2023-01-17T07:04:23.792Z,8.50
2023-01-17T07:06:51.239Z,8.77
2023-01-17T07:09:18.816Z,9.37
2023-01-17T07:11:46.259Z,9.60
2023-01-17T07:14:13.960Z,9.93
2023-01-17T07:16:41.405Z,8.73
2023-01-17T07:19:08.950Z,9.17
2023-01-17T07:21:36.421Z,9.63
2023-01-17T07:24:04.037Z,9.60
2023-01-17T07:26:31.506Z,9.33
2023-01-17T07:28:59.187Z,10.27
2023-01-17T07:31:26.710Z,10.50
2023-01-17T07:33:54.225Z,10.30
2023-01-17T07:36:21.695Z,9.70
2023-01-17T07:38:49.205Z,10.60
2023-01-17T07:41:16.689Z,9.87
2023-01-17T07:43:44.307Z,9.87
2023-01-17T07:46:11.870Z,10.90
2023-01-17T07:48:39.429Z,9.60
2023-01-17T07:51:06.949Z,9.77
2023-01-17T07:53:34.889Z,10.63
2023-01-17T07:56:03.302Z,10.63
2023-01-17T07:58:31.425Z,10.70
2023-01-17T08:01:02.996Z,9.40
2023-01-17T08:03:30.650Z,10.77
2023-01-17T08:05:58.597Z,9.63
2023-01-17T08:08:26.095Z,8.90
2023-01-17T08:10:53.552Z,9.40
2023-01-17T08:13:24.142Z,9.23
2023-01-17T08:15:51.990Z,8.87
2023-01-17T08:18:19.484Z,8.27
2023-01-17T08:20:47.019Z,8.67
2023-01-17T08:23:14.576Z,8.83
2023-01-17T08:25:42.121Z,8.17
2023-01-17T08:28:09.638Z,7.87
2023-01-17T08:30:37.149Z,8.17
2023-01-17T08:33:04.742Z,8.17
2023-01-17T08:35:32.728Z,7.97
2023-01-17T08:38:00.933Z,7.43
2023-01-17T08:40:28.439Z,9.07
2023-01-17T08:42:56.660Z,7.03
2023-01-17T08:45:24.525Z,8.60
2023-01-17T08:47:52.039Z,8.13
2023-01-17T08:50:19.656Z,7.60
2023-01-17T08:52:48.067Z,7.27
2023-01-17T08:55:15.816Z,7.97
2023-01-17T08:57:43.290Z,7.00
2023-01-17T09:00:11.228Z,7.43
2023-01-17T09:02:38.781Z,7.97
2023-01-17T09:05:06.491Z,8.27
2023-01-17T09:07:34.103Z,7.10
2023-01-17T09:10:01.653Z,7.47
2023-01-17T09:12:32.062Z,7.07
2023-01-17T09:14:59.581Z,7.10
2023-01-17T09:17:27.028Z,7.33
2023-01-17T09:19:54.538Z,7.90
2023-01-17T09:22:22.059Z,7.33
2023-01-17T09:24:49.549Z,7.57
2023-01-17T09:27:16.994Z,7.47
2023-01-17T09:29:44.594Z,7.67
2023-01-17T09:32:12.058Z,7.77
2023-01-17T09:34:39.598Z,7.63
2023-01-17T09:37:07.141Z,7.27
2023-01-17T09:39:34.753Z,6.30
2023-01-17T09:42:17.236Z,6.47
2023-01-17T09:44:47.420Z,6.70
2023-01-17T09:47:32.163Z,6.70
2023-01-17T09:50:08.137Z,6.63
2023-01-17T09:52:35.794Z,7.43
2023-01-17T09:55:03.778Z,6.03
2023-01-17T09:57:31.317Z,7.33
2023-01-17T10:00:19.069Z,5.60
2023-01-17T10:03:05.649Z,5.87
2023-01-17T10:05:42.102Z,5.67
2023-01-17T10:08:28.191Z,5.90
2023-01-17T10:10:55.737Z,6.17
2023-01-17T10:13:38.203Z,5.00
2023-01-17T10:16:13.267Z,5.80
2023-01-17T10:18:47.003Z,5.77
2023-01-17T10:21:14.575Z,5.33
2023-01-17T10:23:59.924Z,5.07
2023-01-17T10:26:27.766Z,6.10
2023-01-17T10:29:03.331Z,5.87
2023-01-17T10:31:44.123Z,5.80
2023-01-17T10:34:17.663Z,5.27
2023-01-17T10:36:52.058Z,5.60
2023-01-17T10:39:23.685Z,5.07
2023-01-17T10:42:03.919Z,5.30
2023-01-17T10:44:44.498Z,5.27
2023-01-17T10:47:22.848Z,5.40
2023-01-17T10:49:51.893Z,4.83
2023-01-17T10:52:25.531Z,4.83
2023-01-17T10:54:55.913Z,5.93
2023-01-17T10:57:24.641Z,6.67
2023-01-17T10:59:53.069Z,5.93
2023-01-17T11:02:25.223Z,6.13
2023-01-17T11:04:54.100Z,6.70
2023-01-17T11:07:23.253Z,6.07
2023-01-17T11:09:54.626Z,5.40
2023-01-17T11:12:25.340Z,6.27
2023-01-17T11:15:11.357Z,4.97
2023-01-17T11:18:02.285Z,4.77
2023-01-17T11:20:40.092Z,5.00
2023-01-17T11:23:13.746Z,5.57
2023-01-17T11:25:41.552Z,3.87
2023-01-17T11:28:21.450Z,4.43
2023-01-17T11:30:52.990Z,4.70
2023-01-17T11:33:40.303Z,4.70
2023-01-17T11:36:14.984Z,4.20
2023-01-17T11:38:54.341Z,3.80
2023-01-17T11:41:22.730Z,4.60
2023-01-17T11:43:54.243Z,4.40
2023-01-17T11:46:22.178Z,4.73
2023-01-17T11:48:56.200Z,4.07
2023-01-17T11:51:26.186Z,3.90
2023-01-17T11:53:54.434Z,3.93
2023-01-17T11:56:32.362Z,3.80
2023-01-17T11:59:26.054Z,4.40
2023-01-17T12:02:14.486Z,4.00
2023-01-17T12:04:42.063Z,3.70
2023-01-17T12:07:09.563Z,4.00
2023-01-17T12:10:03.243Z,4.10
2023-01-17T12:12:56.849Z,4.00
2023-01-17T12:15:34.393Z,4.17
2023-01-17T12:18:04.620Z,4.23
2023-01-17T12:20:43.938Z,4.27
2023-01-17T12:23:14.577Z,3.93
2023-01-17T12:25:48.472Z,4.43
2023-01-17T12:28:34.278Z,4.13
2023-01-17T12:31:07.468Z,3.80
2023-01-17T12:33:38.533Z,3.67
2023-01-17T12:36:11.202Z,3.50
2023-01-17T12:38:39.859Z,3.30
2023-01-17T12:41:17.451Z,3.53
2023-01-17T12:43:45.438Z,4.60
2023-01-17T12:46:15.964Z,4.13
2023-01-17T12:48:43.763Z,3.27
2023-01-17T12:51:17.592Z,4.00
2023-01-17T12:53:57.887Z,3.87
2023-01-17T12:56:29.294Z,3.50
2023-01-17T12:59:03.770Z,3.23
2023-01-17T13:01:32.670Z,3.70
2023-01-17T13:04:57.010Z,3.47
2023-01-17T13:07:31.675Z,3.37
2023-01-17T13:10:03.183Z,3.10
2023-01-17T13:12:33.289Z,2.97
2023-01-17T13:15:01.626Z,3.40
2023-01-17T13:17:50.172Z,3.40
2023-01-17T13:20:33.882Z,3.40
2023-01-17T13:23:04.568Z,3.70
2023-01-17T13:25:32.122Z,3.07
2023-01-17T13:28:03.820Z,3.23
2023-01-17T13:30:31.327Z,3.30
2023-01-17T13:33:01.651Z,3.27
2023-01-17T13:35:29.153Z,4.10
2023-01-17T13:38:02.706Z,2.70
2023-01-17T13:40:39.200Z,4.00
2023-01-17T13:43:12.722Z,3.40
2023-01-17T13:45:40.563Z,3.30
2023-01-17T13:48:14.160Z,3.13
2023-01-17T13:50:41.699Z,3.20
2023-01-17T13:53:28.028Z,3.13
2023-01-17T13:56:14.431Z,3.30
2023-01-17T13:58:48.067Z,2.90
2023-01-17T14:01:15.854Z,3.30
2023-01-17T14:03:52.351Z,2.97
2023-01-17T14:06:38.742Z,3.07
2023-01-17T14:09:09.388Z,3.73
2023-01-17T14:11:37.323Z,3.10
2023-01-17T14:14:23.463Z,3.00
2023-01-17T14:16:50.992Z,3.00
2023-01-17T14:19:26.284Z,2.80
2023-01-17T14:22:13.795Z,2.90
2023-01-17T14:25:02.296Z,2.53
2023-01-17T14:27:32.648Z,1.80
2023-01-17T14:30:00.850Z,1.50
2023-01-17T14:32:30.492Z,1.50
2023-01-17T14:34:58.023Z,1.60
2023-01-17T14:37:25.537Z,2.00
2023-01-17T14:39:53.069Z,2.03
2023-01-17T14:42:23.099Z,2.33
2023-01-17T14:44:53.202Z,2.50
2023-01-17T14:47:20.915Z,2.50
2023-01-17T14:49:48.512Z,2.00
2023-01-17T14:52:17.825Z,2.53
2023-01-17T14:54:49.640Z,2.87
2023-01-17T14:57:26.055Z,3.00
2023-01-17T15:00:09.036Z,1.97
2023-01-17T15:02:40.268Z,2.40
2023-01-17T15:05:10.805Z,2.27
2023-01-17T15:07:38.393Z,2.37
2023-01-17T15:10:06.176Z,2.33
2023-01-17T15:12:36.886Z,2.33
2023-01-17T15:15:04.539Z,2.47
2023-01-17T15:17:32.045Z,2.70
2023-01-17T15:20:01.799Z,2.83
2023-01-17T15:22:30.045Z,2.33
2023-01-17T15:24:58.306Z,3.00
2023-01-17T15:27:26.471Z,2.50
2023-01-17T15:29:54.093Z,2.97
2023-01-17T15:32:25.282Z,3.40
2023-01-17T15:34:53.062Z,2.93
2023-01-17T15:37:34.043Z,2.97
2023-01-17T15:40:21.581Z,2.43
2023-01-17T15:43:09.404Z,2.77
2023-01-17T15:45:36.989Z,2.90
2023-01-17T15:48:23.516Z,2.77
2023-01-17T15:50:58.274Z,2.63
2023-01-17T15:53:29.994Z,2.87
2023-01-17T15:55:57.865Z,4.03
2023-01-17T15:58:29.489Z,5.23
2023-01-17T16:00:57.654Z,3.20
2023-01-17T16:03:26.612Z,4.03
2023-01-17T16:05:54.736Z,3.57
2023-01-17T16:08:25.152Z,3.50
2023-01-17T16:10:57.285Z,2.97
2023-01-17T16:13:24.843Z,3.63
2023-01-17T16:15:52.503Z,3.47
2023-01-17T16:18:24.247Z,4.80
2023-01-17T16:21:01.919Z,4.80
2023-01-17T16:23:29.522Z,5.20
2023-01-17T16:25:57.378Z,4.67
2023-01-17T16:28:24.937Z,5.53
2023-01-17T16:30:52.400Z,5.70
2023-01-17T16:33:20.010Z,4.73
2023-01-17T16:35:47.552Z,4.50
2023-01-17T16:38:15.479Z,5.40
2023-01-17T16:40:43.981Z,11.00
2023-01-17T16:43:12.011Z,9.03
2023-01-17T16:45:40.711Z,7.13
2023-01-17T16:48:08.567Z,7.60
2023-01-17T16:50:36.073Z,6.80
2023-01-17T16:53:03.642Z,6.80
2023-01-17T16:55:31.162Z,7.70
2023-01-17T16:57:58.718Z,6.80
2023-01-17T17:00:26.289Z,9.30
2023-01-17T17:02:54.328Z,13.07
2023-01-17T17:05:21.835Z,9.37
2023-01-17T17:07:53.586Z,9.97
2023-01-17T17:10:22.473Z,9.10
2023-01-17T17:12:50.122Z,10.90
2023-01-17T17:15:17.746Z,13.57
2023-01-17T17:17:45.259Z,24.13
2023-01-17T17:20:14.773Z,17.43
2023-01-17T17:22:43.124Z,13.47
2023-01-17T17:25:11.223Z,21.13
2023-01-17T17:27:39.376Z,20.47
2023-01-17T17:30:07.275Z,47.30
2023-01-17T17:32:34.796Z,21.73
2023-01-17T17:35:02.264Z,15.67
2023-01-17T17:37:29.928Z,12.63
2023-01-17T17:39:57.818Z,13.50
2023-01-17T17:42:29.120Z,12.50
2023-01-17T17:44:56.728Z,14.87
2023-01-17T17:47:24.225Z,14.13
2023-01-17T17:49:51.785Z,16.80
2023-01-17T17:52:19.245Z,17.13
2023-01-17T17:54:46.778Z,17.77
2023-01-17T17:57:14.378Z,19.30
2023-01-17T17:59:41.956Z,18.00
2023-01-17T18:02:11.034Z,18.20
2023-01-17T18:04:38.795Z,19.17
2023-01-17T18:07:06.307Z,17.77
2023-01-17T18:09:33.851Z,15.67
2023-01-17T18:12:01.340Z,14.43
2023-01-17T18:14:29.026Z,12.27
2023-01-17T18:16:56.513Z,11.03
2023-01-17T18:19:25.715Z,11.57
2023-01-17T18:21:53.643Z,13.40
2023-01-17T18:24:22.660Z,11.57
2023-01-17T18:26:51.407Z,10.50
2023-01-17T18:29:19.896Z,11.47
2023-01-17T18:31:48.123Z,11.70
2023-01-17T18:34:16.616Z,12.60
2023-01-17T18:36:44.191Z,11.33
2023-01-17T18:39:12.831Z,10.73
2023-01-17T18:41:40.407Z,11.33
2023-01-17T18:44:08.443Z,12.23
2023-01-17T18:46:36.211Z,11.60
2023-01-17T18:49:04.474Z,10.97
2023-01-17T18:51:32.693Z,11.93
2023-01-17T18:54:00.204Z,11.87
2023-01-17T18:56:27.731Z,11.97
2023-01-17T18:58:55.276Z,12.87
2023-01-17T19:01:24.364Z,13.00
2023-01-17T19:03:53.517Z,14.77
2023-01-17T19:06:23.101Z,14.17
2023-01-17T19:08:50.650Z,13.73
2023-01-17T19:11:18.502Z,29.57
2023-01-17T19:13:46.072Z,24.63
2023-01-17T19:16:15.103Z,23.53
2023-01-17T19:18:42.876Z,26.67
2023-01-17T19:21:14.197Z,23.10
2023-01-17T19:23:42.132Z,22.07
2023-01-17T19:26:10.068Z,25.50
2023-01-17T19:28:38.709Z,21.77
2023-01-17T19:31:07.555Z,23.37
2023-01-17T19:33:36.289Z,25.17
2023-01-17T19:36:05.352Z,26.00
2023-01-17T19:38:34.442Z,21.70
2023-01-17T19:41:09.071Z,22.13
2023-01-17T19:43:36.558Z,23.10
2023-01-17T19:46:04.421Z,22.83
2023-01-17T19:48:32.246Z,25.37
2023-01-17T19:51:06.990Z,26.60
2023-01-17T19:53:34.683Z,27.13
2023-01-17T19:56:12.752Z,23.80
2023-01-17T19:58:40.311Z,23.93
2023-01-17T20:01:09.301Z,22.93
2023-01-17T20:03:37.146Z,20.97
2023-01-17T20:06:08.105Z,20.80
2023-01-17T20:08:36.052Z,19.73
2023-01-17T20:11:07.713Z,22.07
2023-01-17T20:13:35.411Z,19.80
2023-01-17T20:16:06.486Z,19.07
2023-01-17T20:18:34.355Z,20.37
2023-01-17T20:21:12.584Z,22.43
2023-01-17T20:23:41.256Z,21.87
2023-01-17T20:26:09.631Z,21.33
2023-01-17T20:28:38.182Z,23.07
2023-01-17T20:31:07.144Z,26.07
2023-01-17T20:33:34.672Z,30.50
2023-01-17T20:36:10.267Z,29.03
2023-01-17T20:38:38.978Z,29.00
2023-01-17T20:41:06.529Z,29.07
2023-01-17T20:43:34.021Z,28.27
2023-01-17T20:46:01.580Z,27.73
2023-01-17T20:48:29.196Z,32.37
2023-01-17T20:50:56.766Z,32.13
2023-01-17T20:53:24.314Z,30.47
2023-01-17T20:55:55.979Z,35.17
2023-01-17T20:58:23.449Z,30.93
2023-01-17T21:00:50.994Z,28.57
2023-01-17T21:03:18.646Z,27.70
2023-01-17T21:05:46.109Z,23.53
2023-01-17T21:08:13.663Z,20.13
2023-01-17T21:10:45.846Z,22.27
2023-01-17T21:13:13.455Z,19.67
2023-01-17T21:15:44.526Z,20.33
2023-01-17T21:18:12.046Z,20.93
2023-01-17T21:20:39.855Z,21.03
2023-01-17T21:23:07.594Z,19.23
2023-01-17T21:25:38.372Z,17.70
2023-01-17T21:28:05.883Z,18.13
2023-01-17T21:30:33.757Z,17.70
2023-01-17T21:33:01.401Z,16.33
2023-01-17T21:35:28.907Z,15.47
2023-01-17T21:37:56.701Z,15.23
2023-01-17T21:40:24.405Z,13.67
2023-01-17T21:42:51.962Z,12.40
2023-01-17T21:45:19.487Z,11.97
2023-01-17T21:47:47.009Z,12.77
2023-01-17T21:50:28.448Z,13.07
2023-01-17T21:53:00.222Z,13.10
2023-01-17T21:55:30.767Z,13.43
2023-01-17T21:57:58.720Z,15.20
2023-01-17T22:00:26.340Z,15.50
2023-01-17T22:02:53.955Z,14.30
2023-01-17T22:05:21.494Z,14.13
2023-01-17T22:07:49.002Z,13.67
2023-01-17T22:10:16.666Z,13.90
2023-01-17T22:12:44.207Z,15.67
2023-01-17T22:15:11.882Z,14.40
2023-01-17T22:17:39.401Z,15.70
2023-01-17T22:20:07.226Z,15.17
2023-01-17T22:22:34.836Z,14.20
2023-01-17T22:25:02.314Z,13.00
2023-01-17T22:27:30.007Z,15.03
2023-01-17T22:29:57.512Z,14.83
2023-01-17T22:32:25.030Z,15.53
2023-01-17T22:34:52.558Z,14.00
2023-01-17T22:37:20.181Z,14.30
2023-01-17T22:39:47.656Z,12.50
2023-01-17T22:42:15.166Z,14.27
2023-01-17T22:44:42.605Z,13.70
2023-01-17T22:47:10.121Z,14.07
2023-01-17T22:49:37.574Z,15.00
2023-01-17T22:52:05.278Z,12.73
2023-01-17T22:54:32.724Z,13.93
2023-01-17T22:57:00.354Z,14.10
2023-01-17T22:59:27.815Z,13.57
2023-01-17T23:01:55.310Z,14.47
2023-01-17T23:04:22.812Z,14.43
2023-01-17T23:06:50.361Z,14.00
2023-01-17T23:09:18.193Z,13.30
2023-01-17T23:11:46.988Z,12.50
2023-01-17T23:14:26.750Z,13.50
2023-01-17T23:16:54.202Z,13.90
2023-01-17T23:19:22.057Z,12.90
2023-01-17T23:21:54.067Z,13.17
2023-01-17T23:24:21.587Z,13.80
2023-01-17T23:26:49.103Z,13.70
2023-01-17T23:29:16.602Z,13.30
2023-01-17T23:31:44.071Z,14.03
2023-01-17T23:34:11.586Z,14.47
2023-01-17T23:36:39.025Z,14.00
2023-01-17T23:39:06.539Z,14.73
2023-01-17T23:41:34.016Z,15.53
2023-01-17T23:44:01.537Z,16.67
2023-01-17T23:46:29.001Z,15.97
2023-01-17T23:48:56.538Z,13.23
2023-01-17T23:51:24.047Z,12.87
2023-01-17T23:53:51.587Z,13.50
2023-01-17T23:56:21.407Z,12.30
2023-01-17T23:58:48.949Z,13.97
